Time;durP1;ratioP1;P1;durP2;ratioP2;P2;SDS_P1;SDS_P2;PMS_P1;PMS_P2;Temp;Humidity;BMP_temperature;BMP_pressure;BME280_temperature;BME280_humidity;BME280_pressure;Samples;Min_cycle;Max_cycle;Signal;HPM_P1;HPM_P2
2023/07/22 00:01:23;;;;;;;10.63;5.35;;;;;;;25.31;71.87;99862.31;5107384;28;20119;-24
2023/07/22 00:03:48;;;;;;;8.98;5.13;;;;;;;25.17;72.45;99857.03;5106951;28;20528;-24
2023/07/22 00:06:16;;;;;;;7.13;4.93;;;;;;;25.34;71.98;99858.97;5106591;28;20028;-24
2023/07/22 00:08:41;;;;;;;10.57;5.00;;;;;;;25.34;72.05;99858.19;5107021;28;20024;-23
2023/07/22 00:11:07;;;;;;;10.57;5.20;;;;;;;25.05;72.82;99854.94;5106988;28;20032;-26
2023/07/22 00:13:33;;;;;;;6.85;4.72;;;;;;;25.08;73.37;99853.50;5106549;28;20115;-24
2023/07/22 00:15:59;;;;;;;9.38;4.90;;;;;;;25.26;72.90;99866.03;5106804;28;20092;-23
2023/07/22 00:18:27;;;;;;;8.13;4.85;;;;;;;25.43;72.04;99872.59;5106876;28;20473;-22
2023/07/22 00:20:53;;;;;;;8.60;4.88;;;;;;;25.31;72.73;99872.44;5106138;28;20019;-22
2023/07/22 00:23:19;;;;;;;9.15;5.80;;;;;;;25.40;72.24;99867.81;5106589;28;20432;-22
2023/07/22 00:25:45;;;;;;;7.55;4.80;;;;;;;25.26;72.78;99873.44;5106338;27;20023;-23
2023/07/22 00:28:11;;;;;;;7.88;4.90;;;;;;;25.15;73.89;99872.94;5106592;28;20034;-23
2023/07/22 00:30:36;;;;;;;7.40;4.97;;;;;;;25.31;73.34;99870.53;5106623;28;20094;-23
2023/07/22 00:33:02;;;;;;;7.20;4.95;;;;;;;25.04;74.48;99871.63;5106496;28;20039;-23
2023/07/22 00:35:27;;;;;;;7.70;5.03;;;;;;;25.04;74.78;99868.91;5106368;28;20747;-23
2023/07/22 00:37:52;;;;;;;8.02;4.95;;;;;;;25.02;74.79;99871.16;5106541;28;20027;-23
2023/07/22 00:40:19;;;;;;;7.80;5.00;;;;;;;25.04;74.51;99882.53;5106371;28;20058;-31
2023/07/22 00:42:44;;;;;;;11.38;5.20;;;;;;;24.98;74.88;99875.63;5106360;28;20035;-23
2023/07/22 00:45:12;;;;;;;8.98;5.07;;;;;;;25.36;72.85;99875.81;5106375;28;20469;-23
2023/07/22 00:47:40;;;;;;;8.43;5.28;;;;;;;25.23;73.66;99876.78;5106523;28;20037;-24
2023/07/22 00:50:07;;;;;;;8.60;4.97;;;;;;;25.47;72.35;99876.28;5106528;28;20042;-24
2023/07/22 00:52:37;;;;;;;8.95;5.00;;;;;;;25.39;72.59;99883.34;5106035;28;20481;-23
2023/07/22 00:55:04;;;;;;;10.57;5.53;;;;;;;25.25;73.19;99880.81;5106246;28;20503;-24
2023/07/22 00:57:30;;;;;;;9.80;5.30;;;;;;;25.40;72.63;99892.38;5105801;27;20407;-23
2023/07/22 00:59:55;;;;;;;9.73;5.63;;;;;;;25.19;73.38;99881.25;5105825;28;20587;-23
2023/07/22 01:02:22;;;;;;;10.05;5.40;;;;;;;25.30;73.46;99884.50;5105827;28;20593;-23
2023/07/22 01:04:49;;;;;;;8.23;5.20;;;;;;;25.47;72.36;99884.47;5105832;28;20019;-24
2023/07/22 01:07:15;;;;;;;7.03;5.15;;;;;;;25.59;71.77;99901.00;5105765;28;20026;-24
2023/07/22 01:09:42;;;;;;;8.00;5.13;;;;;;;25.29;73.19;99882.88;5105625;28;20632;-23
2023/07/22 01:12:11;;;;;;;10.48;5.57;;;;;;;25.45;72.90;99897.66;5106107;28;20527;-23
2023/07/22 01:14:39;;;;;;;9.20;5.47;;;;;;;25.39;72.40;99891.53;5104414;28;20544;-24
2023/07/22 01:17:06;;;;;;;8.77;5.03;;;;;;;25.40;72.80;99884.19;5106128;27;20027;-25
2023/07/22 01:19:33;;;;;;;9.57;5.50;;;;;;;25.48;72.62;99888.81;5105413;28;20032;-24
2023/07/22 01:22:04;;;;;;;9.60;5.43;;;;;;;25.32;73.10;99887.72;5105740;28;20036;-24
2023/07/22 01:24:30;;;;;;;8.50;4.90;;;;;;;25.51;72.46;99901.81;5105440;28;20115;-24
2023/07/22 01:26:56;;;;;;;9.68;5.18;;;;;;;25.57;72.48;99908.72;5105435;28;20039;-24
2023/07/22 01:29:25;;;;;;;11.20;5.20;;;;;;;25.43;72.84;99914.34;5105381;28;20104;-23
2023/07/22 01:31:53;;;;;;;7.45;5.15;;;;;;;25.31;73.07;99900.53;5104994;28;20034;-25
2023/07/22 01:34:22;;;;;;;9.82;5.65;;;;;;;25.42;73.04;99901.03;5105215;28;20031;-25
2023/07/22 01:36:48;;;;;;;9.88;5.15;;;;;;;25.35;73.03;99906.97;5105076;28;20094;-24
2023/07/22 01:39:15;;;;;;;8.50;5.50;;;;;;;25.35;73.38;99906.97;5105145;28;20024;-24
2023/07/22 01:41:41;;;;;;;8.90;5.80;;;;;;;25.13;74.58;99910.66;5105431;28;20051;-26
2023/07/22 01:44:06;;;;;;;11.90;5.60;;;;;;;25.02;75.66;99901.94;5105455;28;20397;-24
2023/07/22 01:46:31;;;;;;;9.05;6.03;;;;;;;25.07;74.54;99901.00;5105193;28;20397;-24
2023/07/22 01:48:57;;;;;;;10.43;5.32;;;;;;;25.13;74.39;99893.44;5104936;28;20055;-24
2023/07/22 01:51:22;;;;;;;10.07;5.55;;;;;;;25.03;75.20;99894.59;5104965;28;20019;-24
2023/07/22 01:53:49;;;;;;;11.20;5.95;;;;;;;25.25;74.48;99905.38;5105125;28;20039;-24
2023/07/22 01:56:20;;;;;;;10.32;6.28;;;;;;;25.15;74.59;99919.31;5104574;28;20027;-24
2023/07/22 01:58:45;;;;;;;8.65;5.30;;;;;;;25.24;74.12;99933.78;5104792;28;20096;-24
2023/07/22 02:01:13;;;;;;;8.70;5.85;;;;;;;25.20;74.05;99932.00;5105018;28;20019;-24
2023/07/22 02:03:40;;;;;;;8.20;6.07;;;;;;;25.19;74.22;99931.19;5105168;28;20039;-23
2023/07/22 02:06:05;;;;;;;10.05;5.78;;;;;;;24.99;74.95;99932.63;5105124;28;20064;-25
2023/07/22 02:08:31;;;;;;;8.15;5.78;;;;;;;24.97;75.35;99947.69;5104460;28;20036;-24
2023/07/22 02:11:08;;;;;;;12.20;5.93;;;;;;;24.88;75.41;99936.75;5104768;28;20425;-25
2023/07/22 02:13:35;;;;;;;10.63;5.60;;;;;;;24.95;75.28;99950.75;5104674;28;20020;-24
2023/07/22 02:16:04;;;;;;;10.23;5.43;;;;;;;24.89;76.15;99948.47;5104435;28;20085;-24
2023/07/22 02:18:30;;;;;;;8.25;6.18;;;;;;;24.73;77.54;99950.84;5104746;28;20035;-24
2023/07/22 02:20:56;;;;;;;8.40;5.75;;;;;;;24.70;77.99;99935.09;5104565;28;20076;-24
2023/07/22 02:23:23;;;;;;;9.60;5.90;;;;;;;24.50;78.82;99914.66;5104296;28;20028;-24
2023/07/22 02:25:52;;;;;;;9.60;6.45;;;;;;;24.61;78.57;99922.25;5104632;28;20031;-24
2023/07/22 02:28:21;;;;;;;11.32;6.03;;;;;;;24.10;81.46;99922.81;5104328;28;20058;-24
2023/07/22 02:30:52;;;;;;;12.38;7.00;;;;;;;24.10;80.67;99920.09;5104661;28;20027;-25
2023/07/22 02:33:19;;;;;;;12.63;6.47;;;;;;;24.06;80.73;99928.88;5104536;28;20140;-24
2023/07/22 02:35:45;;;;;;;10.27;6.47;;;;;;;24.16;80.61;99943.38;5104661;28;20035;-25
2023/07/22 02:38:11;;;;;;;12.23;6.82;;;;;;;24.45;79.10;99946.38;5104398;28;20756;-24
2023/07/22 02:40:37;;;;;;;9.38;5.93;;;;;;;24.38;79.06;99951.50;5104598;28;20027;-25
2023/07/22 02:43:06;;;;;;;10.18;6.75;;;;;;;24.50;78.82;99969.19;5105881;28;20027;-24
2023/07/22 02:45:33;;;;;;;10.93;6.22;;;;;;;24.58;78.24;99958.34;5108528;28;20503;-24
2023/07/22 02:47:58;;;;;;;12.57;6.93;;;;;;;24.41;78.78;99967.19;5108564;28;20799;-24
2023/07/22 02:50:25;;;;;;;12.45;6.55;;;;;;;24.53;77.74;99969.38;5108778;28;20034;-24
2023/07/22 02:52:50;;;;;;;11.93;7.07;;;;;;;24.44;78.31;99965.78;5108603;28;20106;-24
2023/07/22 02:55:20;;;;;;;10.15;6.93;;;;;;;24.51;78.22;99962.63;5108401;28;20127;-24
2023/07/22 02:57:47;;;;;;;12.38;7.20;;;;;;;24.53;77.71;99963.13;5108603;28;20087;-24
2023/07/22 03:00:17;;;;;;;12.10;6.50;;;;;;;24.45;78.30;99951.81;5108217;27;20047;-27
2023/07/22 03:02:43;;;;;;;11.95;6.70;;;;;;;24.46;78.33;99956.16;5107162;28;20062;-24
2023/07/22 03:05:09;;;;;;;12.30;6.40;;;;;;;24.50;77.88;99958.28;5108557;28;20488;-24
2023/07/22 03:07:36;;;;;;;12.88;7.32;;;;;;;24.54;78.02;99954.63;5108502;28;20035;-23
2023/07/22 03:10:01;;;;;;;13.75;7.28;;;;;;;24.23;79.55;99949.16;5108340;28;20028;-23
2023/07/22 03:12:27;;;;;;;11.15;7.03;;;;;;;24.11;81.09;99921.69;5108033;28;20472;-25
2023/07/22 03:14:53;;;;;;;11.20;7.10;;;;;;;23.91;81.95;99932.00;5107864;28;20493;-21
2023/07/22 03:17:18;;;;;;;12.75;7.63;;;;;;;23.88;82.28;99921.72;5107513;28;20107;-21
2023/07/22 03:19:44;;;;;;;11.23;6.75;;;;;;;24.14;80.92;99924.59;5107964;28;20186;-23
2023/07/22 03:22:14;;;;;;;10.05;6.93;;;;;;;24.30;79.39;99925.00;5108448;28;20534;-22
2023/07/22 03:24:39;;;;;;;14.73;8.95;;;;;;;24.10;80.38;99950.06;5107872;28;20577;-22
2023/07/22 03:27:06;;;;;;;12.48;7.60;;;;;;;24.17;79.85;99943.06;5107593;28;20027;-22
2023/07/22 03:29:31;;;;;;;12.93;7.60;;;;;;;23.83;82.35;99947.19;5107872;28;20031;-23
2023/07/22 03:31:57;;;;;;;12.07;7.53;;;;;;;23.99;81.82;99953.06;5107634;28;20028;-22
2023/07/22 03:34:23;;;;;;;13.30;8.23;;;;;;;24.20;80.68;99950.59;5108056;28;20173;-22
2023/07/22 03:36:48;;;;;;;11.15;6.53;;;;;;;24.31;79.72;99953.03;5107673;27;20031;-22
2023/07/22 03:39:14;;;;;;;14.13;7.57;;;;;;;23.91;81.39;99953.81;5107500;28;20695;-22
2023/07/22 03:41:40;;;;;;;10.98;7.38;;;;;;;23.70;82.53;99949.94;5107493;28;20110;-22
2023/07/22 03:44:05;;;;;;;15.48;7.75;;;;;;;23.89;81.84;99950.59;5107585;28;20496;-23
2023/07/22 03:46:31;;;;;;;15.85;9.35;;;;;;;23.98;80.07;99959.59;5107463;28;20447;-25
2023/07/22 03:48:56;;;;;;;9.68;7.55;;;;;;;24.23;78.91;99960.06;5107444;28;20043;-23
2023/07/22 03:51:21;;;;;;;11.63;7.22;;;;;;;23.97;79.95;99957.22;5107767;28;20103;-22
2023/07/22 03:53:47;;;;;;;14.25;7.18;;;;;;;23.86;80.64;99959.38;5107294;28;20468;-22
2023/07/22 03:56:15;;;;;;;10.40;7.32;;;;;;;24.16;79.01;99965.16;5107339;28;20569;-22
2023/07/22 03:58:41;;;;;;;13.48;7.05;;;;;;;24.04;78.30;99966.53;5107221;28;20034;-22
2023/07/22 04:01:06;;;;;;;10.63;7.05;;;;;;;23.88;79.21;99968.03;5106922;28;20044;-22
2023/07/22 04:03:31;;;;;;;12.95;6.93;;;;;;;23.96;79.52;99972.72;5107388;28;20389;-22
2023/07/22 04:05:57;;;;;;;10.52;6.32;;;;;;;23.97;79.38;99966.19;5106982;28;20015;-25
2023/07/22 04:08:22;;;;;;;9.63;6.60;;;;;;;24.11;79.33;99962.56;5107196;28;20035;-23
2023/07/22 04:10:55;;;;;;;10.45;6.75;;;;;;;24.00;78.98;99970.19;5106948;28;20024;-23
2023/07/22 04:13:21;;;;;;;11.05;6.78;;;;;;;23.91;79.80;99967.41;5107069;28;20027;-23
2023/07/22 04:15:47;;;;;;;11.05;6.53;;;;;;;24.14;78.14;99968.19;5106839;28;20027;-24
2023/07/22 04:18:14;;;;;;;11.13;6.30;;;;;;;23.77;80.25;99969.41;5106745;28;20039;-23
2023/07/22 04:20:40;;;;;;;12.50;8.10;;;;;;;24.05;79.43;99970.06;5106114;28;20027;-23
2023/07/22 04:23:05;;;;;;;11.40;7.13;;;;;;;24.30;78.09;99974.06;5106409;28;20049;-24
2023/07/22 04:25:30;;;;;;;10.05;7.05;;;;;;;24.26;77.78;99973.06;5106052;28;20133;-23
2023/07/22 04:27:56;;;;;;;9.70;6.65;;;;;;;24.35;76.91;99962.19;5106137;28;20594;-23
2023/07/22 04:30:21;;;;;;;10.95;7.55;;;;;;;24.46;76.73;99969.00;5106722;28;20027;-23
2023/07/22 04:32:50;;;;;;;9.43;6.60;;;;;;;24.33;76.96;99967.97;5106343;28;20050;-24
2023/07/22 04:35:22;;;;;;;11.43;6.90;;;;;;;24.58;76.44;99974.69;5106496;28;20038;-23
2023/07/22 04:37:47;;;;;;;11.57;7.35;;;;;;;24.67;75.38;99980.16;5106356;28;20078;-23
2023/07/22 04:40:16;;;;;;;10.70;7.10;;;;;;;24.80;74.80;99984.69;5106397;28;20020;-24
2023/07/22 04:42:45;;;;;;;13.93;7.55;;;;;;;25.02;74.76;99980.28;5106820;28;20023;-24
2023/07/22 04:45:11;;;;;;;11.32;7.65;;;;;;;25.07;74.76;99974.69;5106507;28;20538;-23
2023/07/22 04:47:38;;;;;;;11.90;7.03;;;;;;;25.08;74.14;99973.53;5106411;28;20035;-23
2023/07/22 04:50:09;;;;;;;15.30;7.80;;;;;;;25.21;73.64;99978.09;5106528;28;20067;-23
2023/07/22 04:52:37;;;;;;;10.77;6.95;;;;;;;25.34;73.27;99975.53;5105927;28;20055;-24
2023/07/22 04:55:08;;;;;;;11.07;7.28;;;;;;;25.08;75.11;99983.66;5105935;28;20031;-24
2023/07/22 04:57:41;;;;;;;11.32;7.53;;;;;;;25.17;74.29;99981.72;5106188;28;20496;-24
2023/07/22 05:00:14;;;;;;;9.30;7.55;;;;;;;25.32;73.92;99988.72;5106132;28;20051;-24
2023/07/22 05:02:43;;;;;;;12.88;7.55;;;;;;;25.51;73.18;99986.47;5106583;28;20035;-24
2023/07/22 05:05:09;;;;;;;14.50;8.15;;;;;;;25.53;72.43;99989.66;5105815;28;20147;-24
2023/07/22 05:07:37;;;;;;;11.98;8.00;;;;;;;25.67;72.19;99981.31;5105523;28;20843;-24
2023/07/22 05:10:06;;;;;;;;;;;;;;;25.69;73.41;99983.72;5106479;28;20119;-24
2023/07/22 05:12:33;;;;;;;13.05;7.90;;;;;;;25.72;73.02;99994.78;5105782;27;20351;-24
2023/07/22 05:14:59;;;;;;;12.25;7.55;;;;;;;26.03;71.60;99989.19;5105842;28;20023;-24
2023/07/22 05:17:25;;;;;;;12.60;7.32;;;;;;;26.12;72.05;99993.84;5105866;28;20497;-24
2023/07/22 05:19:50;;;;;;;12.35;7.35;;;;;;;26.02;72.27;99995.75;5105842;28;20555;-24
2023/07/22 05:22:16;;;;;;;11.30;7.70;;;;;;;26.16;72.70;99994.78;5104063;28;20031;-24
2023/07/22 05:24:42;;;;;;;12.00;7.75;;;;;;;25.85;73.18;99977.44;5105536;28;20624;-23
2023/07/22 05:27:07;;;;;;;10.93;7.43;;;;;;;26.08;72.15;99988.19;5105525;28;20522;-24
2023/07/22 05:29:33;;;;;;;11.82;7.75;;;;;;;26.19;71.79;99983.97;5105857;28;20035;-24
2023/07/22 05:31:58;;;;;;;12.13;8.07;;;;;;;26.61;70.17;99995.13;5105189;28;20028;-26
2023/07/22 05:34:23;;;;;;;13.57;8.00;;;;;;;26.65;70.07;99978.88;5105152;28;20107;-23
2023/07/22 05:36:51;;;;;;;10.35;7.07;;;;;;;26.77;69.15;99976.25;5105458;28;20027;-24
2023/07/22 05:39:18;;;;;;;10.02;7.28;;;;;;;26.70;71.01;99986.09;5105500;28;20074;-24
2023/07/22 05:41:44;;;;;;;10.80;7.95;;;;;;;26.78;69.55;99982.50;5105228;28;20511;-24
2023/07/22 05:44:09;;;;;;;15.10;7.75;;;;;;;26.86;69.25;99985.19;5104947;28;20024;-24
2023/07/22 05:46:34;;;;;;;19.15;8.30;;;;;;;27.01;68.59;99986.56;5098454;28;20028;-23
2023/07/22 05:49:00;;;;;;;11.45;7.85;;;;;;;27.05;69.28;99979.31;5090154;28;20024;-25
2023/07/22 05:51:26;;;;;;;12.15;8.15;;;;;;;26.83;69.30;99969.44;5101567;28;20512;-24
2023/07/22 05:53:51;;;;;;;10.27;7.90;;;;;;;27.09;68.93;99982.16;5104417;28;20549;-24
2023/07/22 05:56:16;;;;;;;10.85;8.18;;;;;;;27.01;68.25;99975.63;5104399;28;20023;-24
2023/07/22 05:58:42;;;;;;;12.93;8.00;;;;;;;26.99;70.31;99988.03;5104764;28;20736;-25
2023/07/22 06:01:08;;;;;;;10.88;8.32;;;;;;;26.89;69.78;99991.97;5104952;28;20048;-24
2023/07/22 06:03:33;;;;;;;10.63;8.73;;;;;;;27.18;68.09;99991.13;5104885;28;20027;-24
2023/07/22 06:05:58;;;;;;;15.18;8.75;;;;;;;27.20;68.81;99994.34;5104911;28;20032;-24
2023/07/22 06:08:25;;;;;;;10.32;8.15;;;;;;;27.24;67.63;99992.56;5105147;28;20084;-23
2023/07/22 06:10:51;;;;;;;11.43;8.67;;;;;;;27.51;68.10;99990.44;5104641;28;20467;-24
2023/07/22 06:13:16;;;;;;;14.50;8.18;;;;;;;27.55;67.75;99988.63;5104880;28;20273;-24
2023/07/22 06:15:44;;;;;;;12.70;7.75;;;;;;;27.73;65.74;99994.75;5104956;28;20070;-24
2023/07/22 06:18:09;;;;;;;;;;;;;;;27.75;65.70;99988.97;5104125;28;20076;-24
2023/07/22 06:20:35;;;;;;;13.10;8.50;;;;;;;27.82;66.13;99992.72;5104628;28;19949;-24
2023/07/22 06:23:02;;;;;;;13.27;8.65;;;;;;;27.94;64.85;99988.47;5104467;28;20262;-24
2023/07/22 06:25:28;;;;;;;13.45;8.93;;;;;;;27.79;65.87;99987.16;5104589;28;20126;-24
2023/07/22 06:27:54;;;;;;;32.88;10.18;;;;;;;28.16;64.64;99982.59;5104449;28;20028;-24
2023/07/22 06:30:19;;;;;;;14.20;8.60;;;;;;;28.58;63.96;99984.38;5103965;28;20048;-24
2023/07/22 06:32:45;;;;;;;15.00;8.45;;;;;;;28.51;61.61;99984.16;5104531;28;20112;-26
2023/07/22 06:35:10;;;;;;;11.48;8.30;;;;;;;28.55;62.65;99974.13;5104575;28;20047;-24
2023/07/22 06:37:36;;;;;;;16.08;8.95;;;;;;;28.65;61.52;99990.13;5104657;28;20415;-24
2023/07/22 06:40:02;;;;;;;14.32;8.18;;;;;;;28.73;61.44;99989.22;5104024;28;20035;-24
2023/07/22 06:42:30;;;;;;;14.30;8.38;;;;;;;28.77;61.76;99981.88;5104208;28;20050;-24
2023/07/22 06:44:56;;;;;;;10.85;7.93;;;;;;;28.87;60.60;99996.28;5104328;28;20134;-26
2023/07/22 06:47:21;;;;;;;11.75;8.68;;;;;;;28.97;59.62;99995.81;5103587;28;20134;-24
2023/07/22 06:49:47;;;;;;;14.43;8.35;;;;;;;28.97;59.63;99990.31;5104407;28;20024;-24
2023/07/22 06:52:13;;;;;;;11.07;8.73;;;;;;;28.92;59.42;99996.06;5104595;28;20433;-24
2023/07/22 06:54:38;;;;;;;13.63;8.45;;;;;;;28.80;59.86;99992.16;5104152;28;20080;-24
2023/07/22 06:57:05;;;;;;;13.18;9.90;;;;;;;28.90;60.77;99995.59;5104245;28;20063;-24
2023/07/22 06:59:31;;;;;;;10.50;8.25;;;;;;;29.09;59.41;99986.78;5103562;28;20083;-25
2023/07/22 07:01:56;;;;;;;11.48;9.02;;;;;;;29.06;59.13;99985.53;5104022;28;20134;-25
2023/07/22 07:04:22;;;;;;;17.40;8.98;;;;;;;29.05;60.63;99982.00;5104099;28;20077;-24
2023/07/22 07:06:47;;;;;;;13.05;8.95;;;;;;;29.28;59.45;99978.75;5104281;28;20253;-24
2023/07/22 07:09:13;;;;;;;13.13;8.98;;;;;;;29.12;59.48;99992.41;5104202;28;20034;-24
2023/07/22 07:11:38;;;;;;;11.65;8.77;;;;;;;29.21;60.02;99990.31;5104113;28;20110;-24
2023/07/22 07:14:04;;;;;;;14.35;9.43;;;;;;;29.51;59.50;99989.22;5104174;28;20403;-24
2023/07/22 07:16:31;;;;;;;13.70;8.15;;;;;;;29.80;58.62;99994.41;5103923;28;20027;-24
2023/07/22 07:18:59;;;;;;;;;;;;;;;29.70;58.85;99994.06;5104738;28;20028;-24
2023/07/22 07:21:25;;;;;;;13.60;9.10;;;;;;;29.88;56.93;100008.34;5104217;28;19980;-24
2023/07/22 07:23:52;;;;;;;16.92;9.57;;;;;;;29.78;58.64;99984.91;5103855;28;20092;-24
2023/07/22 07:26:21;;;;;;;11.77;8.77;;;;;;;29.89;56.56;100005.22;5104026;28;20105;-24
2023/07/22 07:28:50;;;;;;;12.73;8.40;;;;;;;29.95;57.88;100006.56;5104397;28;20269;-26
2023/07/22 07:31:16;;;;;;;12.38;8.95;;;;;;;30.17;57.07;100007.16;5107576;28;20034;-27
2023/07/22 07:33:42;;;;;;;16.35;8.85;;;;;;;30.20;56.21;99987.22;5108146;27;20424;-23
2023/07/22 07:36:07;;;;;;;12.60;8.02;;;;;;;30.29;56.49;99987.84;5107724;28;20544;-24
2023/07/22 07:38:33;;;;;;;9.98;7.95;;;;;;;30.29;55.69;99996.09;5107608;28;20031;-23
2023/07/22 07:41:02;;;;;;;13.52;8.35;;;;;;;30.42;57.06;99985.81;5108062;28;20032;-24
2023/07/22 07:43:28;;;;;;;16.77;9.10;;;;;;;30.87;54.86;99976.28;5107132;28;20019;-23
2023/07/22 07:46:13;;;;;;;13.45;8.05;;;;;;;30.88;55.20;99980.66;5107998;28;20059;-24
2023/07/22 07:48:39;;;;;;;12.82;8.18;;;;;;;30.64;54.75;99965.91;5107464;28;20031;-23
2023/07/22 07:51:04;;;;;;;15.98;8.82;;;;;;;31.01;54.10;99979.38;5107278;27;20035;-24
2023/07/22 07:53:32;;;;;;;25.75;8.73;;;;;;;31.04;54.01;99977.88;5107365;28;20034;-24
2023/07/22 07:55:57;;;;;;;13.80;8.27;;;;;;;30.99;53.75;99970.69;5107400;28;20032;-24
2023/07/22 07:58:22;;;;;;;11.98;8.45;;;;;;;31.61;51.54;99975.56;5107303;28;20030;-24
2023/07/22 08:00:48;;;;;;;18.35;8.93;;;;;;;31.64;51.91;99974.81;5107375;28;20476;-23
2023/07/22 08:03:13;;;;;;;42.75;9.82;;;;;;;31.80;52.06;99980.25;5107197;28;20439;-25
2023/07/22 08:05:41;;;;;;;23.20;8.90;;;;;;;32.08;49.47;99990.25;5107402;28;20028;-23
2023/07/22 08:08:06;;;;;;;24.02;8.70;;;;;;;31.73;50.30;100002.16;5107107;28;20031;-24
2023/07/22 08:10:32;;;;;;;12.10;7.93;;;;;;;31.52;51.70;100003.31;5107157;28;20023;-24
2023/07/22 08:12:57;;;;;;;12.63;8.10;;;;;;;31.44;51.15;99996.88;5107059;28;20027;-24
2023/07/22 08:15:23;;;;;;;12.18;7.78;;;;;;;31.67;52.61;99981.56;5106674;28;20736;-24
2023/07/22 08:17:48;;;;;;;11.07;8.10;;;;;;;32.30;50.18;99997.72;5106785;28;20500;-24
2023/07/22 08:20:16;;;;;;;11.43;8.73;;;;;;;32.43;49.17;99995.59;5106840;28;20446;-25
2023/07/22 08:22:41;;;;;;;17.52;8.85;;;;;;;32.55;48.79;99992.69;5106661;28;20068;-24
2023/07/22 08:25:07;;;;;;;15.82;11.93;;;;;;;32.40;48.88;99996.31;5106601;28;20027;-24
2023/07/22 08:27:32;;;;;;;16.45;14.57;;;;;;;32.49;48.75;99988.59;5106667;28;20075;-24
2023/07/22 08:29:58;;;;;;;19.20;13.20;;;;;;;32.48;47.68;99980.69;5106865;28;20031;-25
2023/07/22 08:32:23;;;;;;;19.75;14.30;;;;;;;32.70;47.00;99981.88;5106606;28;20024;-25
2023/07/22 08:34:51;;;;;;;13.75;10.73;;;;;;;32.69;48.62;99978.28;5106735;28;20514;-24
2023/07/22 08:37:19;;;;;;;19.60;15.63;;;;;;;32.67;46.59;99977.84;5106409;28;20028;-26
2023/07/22 08:39:44;;;;;;;18.30;13.68;;;;;;;32.73;48.04;99972.81;5106363;28;20034;-24
2023/07/22 08:42:13;;;;;;;24.25;18.23;;;;;;;32.59;46.14;99968.69;5105211;28;20024;-25
2023/07/22 08:44:43;;;;;;;21.85;16.20;;;;;;;32.73;46.63;99965.31;5106719;28;20036;-24
2023/07/22 08:47:14;;;;;;;18.73;14.68;;;;;;;33.05;46.34;99958.69;5106280;28;20047;-25
2023/07/22 08:49:47;;;;;;;16.48;13.55;;;;;;;32.97;45.74;99957.78;5106207;28;20602;-25
2023/07/22 08:52:17;;;;;;;17.90;12.30;;;;;;;32.83;46.11;99952.84;5106396;28;20019;-24
2023/07/22 08:54:44;;;;;;;14.65;11.27;;;;;;;33.06;45.46;99955.56;5106508;28;20058;-25
2023/07/22 08:57:19;;;;;;;16.10;10.43;;;;;;;33.54;45.47;99953.00;5106107;28;20033;-25
2023/07/22 08:59:45;;;;;;;12.93;9.65;;;;;;;33.68;45.74;99948.84;5106203;28;20058;-24
2023/07/22 09:02:13;;;;;;;10.48;7.78;;;;;;;34.04;43.49;99952.75;5105924;28;20023;-24
2023/07/22 09:04:42;;;;;;;16.90;9.77;;;;;;;34.17;43.13;99951.34;5106072;28;20047;-25
2023/07/22 09:07:08;;;;;;;13.82;8.40;;;;;;;34.19;44.19;99950.97;5105860;28;20099;-25
2023/07/22 09:09:35;;;;;;;14.48;8.60;;;;;;;34.40;42.66;99958.63;5106074;28;20035;-24
2023/07/22 09:12:04;;;;;;;11.73;7.85;;;;;;;34.24;44.84;99950.59;5105630;28;20126;-24
2023/07/22 09:14:34;;;;;;;12.13;8.48;;;;;;;34.13;43.11;99946.94;5105904;28;20034;-25
2023/07/22 09:16:59;;;;;;;12.25;8.75;;;;;;;34.35;41.73;99947.94;5106016;28;20038;-26
2023/07/22 09:19:25;;;;;;;12.50;8.10;;;;;;;34.21;41.39;99945.84;5105226;28;20742;-25
2023/07/22 09:21:50;;;;;;;12.85;8.40;;;;;;;34.19;42.57;99945.44;5105707;28;20564;-25
2023/07/22 09:24:26;;;;;;;12.07;8.10;;;;;;;34.44;40.24;99936.53;5105710;28;20608;-24
2023/07/22 09:26:51;;;;;;;13.77;8.38;;;;;;;34.32;40.23;99932.88;5105322;28;20085;-24
2023/07/22 09:29:20;;;;;;;13.70;8.20;;;;;;;34.63;41.33;99933.47;5105747;28;20063;-28
2023/07/22 09:31:52;;;;;;;12.23;9.07;;;;;;;34.55;40.06;99924.34;5105709;28;20028;-25
2023/07/22 09:34:17;;;;;;;10.98;8.02;;;;;;;34.97;41.78;99925.78;5105288;28;20523;-28
2023/07/22 09:36:56;;;;;;;12.40;7.93;;;;;;;35.02;37.79;99930.16;5105524;28;20499;-24
2023/07/22 09:39:22;;;;;;;12.85;8.18;;;;;;;34.91;37.74;99932.09;5105446;28;20023;-24
2023/07/22 09:41:48;;;;;;;10.90;7.10;;;;;;;34.78;38.31;99926.88;5105511;28;20024;-25
2023/07/22 09:44:14;;;;;;;14.25;8.70;;;;;;;34.80;39.44;99923.75;5105057;28;20019;-24
2023/07/22 09:46:39;;;;;;;13.00;9.10;;;;;;;35.10;37.44;99920.69;5105281;28;20031;-25
2023/07/22 09:49:08;;;;;;;11.23;7.78;;;;;;;35.14;36.85;99910.41;5105058;28;20527;-24
2023/07/22 09:51:43;;;;;;;12.93;7.90;;;;;;;35.59;37.20;99915.75;5105190;28;20042;-24
2023/07/22 09:54:11;;;;;;;12.70;7.90;;;;;;;35.46;37.29;99909.00;5104951;28;20054;-24
2023/07/22 09:56:45;;;;;;;14.90;8.50;;;;;;;35.77;36.20;99899.16;5105253;28;20154;-25
2023/07/22 09:59:11;;;;;;;16.77;9.07;;;;;;;35.91;36.93;99893.63;5104807;28;20118;-31
2023/07/22 10:01:40;;;;;;;12.70;9.52;;;;;;;36.32;35.96;99900.78;5105348;28;20494;-24
2023/07/22 10:04:07;;;;;;;12.32;8.05;;;;;;;36.19;36.55;99892.09;5105090;28;20016;-24
2023/07/22 10:06:35;;;;;;;12.57;8.00;;;;;;;36.51;36.89;99880.13;5104885;28;20114;-24
2023/07/22 10:09:08;;;;;;;11.35;7.75;;;;;;;36.38;34.95;99876.97;5104936;28;20265;-24
2023/07/22 10:11:38;;;;;;;15.18;8.63;;;;;;;36.66;35.81;99869.78;5104726;28;20027;-24
2023/07/22 10:14:08;;;;;;;11.70;8.75;;;;;;;36.73;34.43;99881.69;5104862;28;20031;-24
2023/07/22 10:16:36;;;;;;;13.02;8.63;;;;;;;36.53;34.80;99867.41;5104503;28;20032;-24
2023/07/22 10:19:02;;;;;;;11.95;8.00;;;;;;;36.79;36.91;99866.19;5104716;28;20039;-25
2023/07/22 10:21:28;;;;;;;15.68;7.88;;;;;;;36.99;34.85;99868.50;5104828;28;20027;-24
2023/07/22 10:23:55;;;;;;;10.27;7.53;;;;;;;37.00;36.67;99850.59;5104565;28;20112;-24
2023/07/22 10:26:20;;;;;;;13.90;7.00;;;;;;;37.03;35.50;99855.38;5104372;28;20027;-24
2023/07/22 10:28:47;;;;;;;11.45;7.20;;;;;;;36.67;35.14;99847.16;5104655;28;20137;-24
2023/07/22 10:31:13;;;;;;;9.90;7.65;;;;;;;37.11;34.65;99839.50;5104589;28;20777;-24
2023/07/22 10:33:41;;;;;;;11.27;7.25;;;;;;;37.40;34.98;99840.09;5104422;28;20112;-24
2023/07/22 10:36:14;;;;;;;13.25;7.10;;;;;;;37.38;34.75;99829.38;5104527;28;20043;-24
2023/07/22 10:38:42;;;;;;;12.63;6.95;;;;;;;37.46;32.65;99846.81;5104533;28;20063;-24
2023/07/22 10:41:18;;;;;;;17.00;7.25;;;;;;;37.80;32.71;99837.81;5104438;28;20028;-24
2023/07/22 10:44:05;;;;;;;11.48;7.85;;;;;;;37.90;32.32;99823.03;5104572;28;20047;-24
2023/07/22 10:46:43;;;;;;;11.65;7.68;;;;;;;38.14;33.86;99840.72;5104220;28;20054;-24
2023/07/22 10:49:15;;;;;;;11.20;7.03;;;;;;;37.64;32.88;99837.56;5104242;28;20028;-24
2023/07/22 10:51:50;;;;;;;45.75;11.00;;;;;;;38.10;33.26;99834.41;5104636;28;20039;-24
2023/07/22 10:54:36;;;;;;;11.88;6.93;;;;;;;38.22;33.06;99838.66;5104547;28;20027;-25
2023/07/22 10:57:26;;;;;;;11.88;6.55;;;;;;;38.10;32.54;99837.19;5097139;28;20032;-24
2023/07/22 10:59:55;;;;;;;10.77;6.97;;;;;;;38.14;31.81;99826.81;5104057;28;20048;-24
2023/07/22 11:02:29;;;;;;;11.90;6.78;;;;;;;38.80;31.70;99827.69;5104130;28;20019;-24
2023/07/22 11:05:02;;;;;;;12.85;7.03;;;;;;;38.41;32.47;99822.56;5106550;28;20035;-25
2023/07/22 11:07:44;;;;;;;12.68;7.10;;;;;;;38.60;31.71;99819.19;5107564;28;20031;-26
2023/07/22 11:10:21;;;;;;;9.35;6.75;;;;;;;38.54;31.91;99815.28;5108292;28;20855;-24
2023/07/22 11:12:48;;;;;;;12.38;6.85;;;;;;;38.87;30.56;99822.03;5108024;28;20032;-24
2023/07/22 11:15:16;;;;;;;12.07;7.35;;;;;;;39.06;30.96;99817.81;5107933;28;20024;-24
2023/07/22 11:17:44;;;;;;;11.88;7.57;;;;;;;38.22;32.69;99805.25;5107822;28;20035;-24
2023/07/22 11:20:13;;;;;;;12.02;7.10;;;;;;;38.71;31.19;99808.69;5108013;28;20028;-24
2023/07/22 11:22:44;;;;;;;15.60;7.00;;;;;;;39.00;30.75;99805.56;5107941;28;20462;-24
2023/07/22 11:25:17;;;;;;;13.68;6.70;;;;;;;39.24;30.24;99797.25;5107771;28;20081;-25
2023/07/22 11:27:43;;;;;;;14.70;6.80;;;;;;;39.66;29.34;99806.16;5108157;28;20023;-24